sensor_id;sensor_type;location;lat;lon;timestamp;P1;durP1;ratioP1;P2;durP2;ratioP2
78728;SDS011;68252;44.944;20.218;2024-01-06T00:00:21;27.02;;;8.85;;
78728;SDS011;68252;44.944;20.218;2024-01-06T00:02:48;25.70;;;8.82;;
78728;SDS011;68252;44.944;20.218;2024-01-06T00:05:14;19.80;;;8.63;;
78728;SDS011;68252;44.944;20.218;2024-01-06T00:07:40;20.17;;;7.68;;
78728;SDS011;68252;44.944;20.218;2024-01-06T00:10:06;23.20;;;7.80;;
78728;SDS011;68252;44.944;20.218;2024-01-06T00:12:33;20.23;;;8.10;;
78728;SDS011;68252;44.944;20.218;2024-01-06T00:15:00;16.88;;;7.70;;
78728;SDS011;68252;44.944;20.218;2024-01-06T00:17:26;19.00;;;7.25;;
78728;SDS011;68252;44.944;20.218;2024-01-06T00:19:52;14.48;;;7.50;;
78728;SDS011;68252;44.944;20.218;2024-01-06T00:22:18;17.25;;;7.05;;
78728;SDS011;68252;44.944;20.218;2024-01-06T00:24:44;15.48;;;6.65;;
78728;SDS011;68252;44.944;20.218;2024-01-06T00:27:10;20.27;;;7.32;;
78728;SDS011;68252;44.944;20.218;2024-01-06T00:29:36;17.42;;;7.63;;
78728;SDS011;68252;44.944;20.218;2024-01-06T00:32:02;14.85;;;6.80;;
78728;SDS011;68252;44.944;20.218;2024-01-06T00:34:28;14.75;;;6.40;;
78728;SDS011;68252;44.944;20.218;2024-01-06T00:36:54;13.93;;;6.70;;
78728;SDS011;68252;44.944;20.218;2024-01-06T00:39:20;14.35;;;7.15;;
78728;SDS011;68252;44.944;20.218;2024-01-06T00:41:47;16.90;;;7.20;;
78728;SDS011;68252;44.944;20.218;2024-01-06T00:44:13;14.25;;;6.82;;
78728;SDS011;68252;44.944;20.218;2024-01-06T00:46:39;13.52;;;6.30;;
78728;SDS011;68252;44.944;20.218;2024-01-06T00:49:05;19.13;;;6.88;;
78728;SDS011;68252;44.944;20.218;2024-01-06T00:51:31;17.52;;;7.28;;
78728;SDS011;68252;44.944;20.218;2024-01-06T00:53:57;13.27;;;6.40;;
78728;SDS011;68252;44.944;20.218;2024-01-06T00:56:23;17.13;;;8.15;;
78728;SDS011;68252;44.944;20.218;2024-01-06T00:58:49;17.60;;;7.80;;
78728;SDS011;68252;44.944;20.218;2024-01-06T01:01:15;17.85;;;7.30;;
78728;SDS011;68252;44.944;20.218;2024-01-06T01:03:41;15.57;;;6.47;;
78728;SDS011;68252;44.944;20.218;2024-01-06T01:06:07;16.65;;;6.70;;
78728;SDS011;68252;44.944;20.218;2024-01-06T01:08:34;14.48;;;6.72;;
78728;SDS011;68252;44.944;20.218;2024-01-06T01:11:00;14.00;;;7.13;;
78728;SDS011;68252;44.944;20.218;2024-01-06T01:13:26;14.50;;;6.43;;
78728;SDS011;68252;44.944;20.218;2024-01-06T01:15:52;12.27;;;5.93;;
78728;SDS011;68252;44.944;20.218;2024-01-06T01:18:19;14.48;;;5.88;;
78728;SDS011;68252;44.944;20.218;2024-01-06T01:20:45;14.23;;;6.80;;
78728;SDS011;68252;44.944;20.218;2024-01-06T01:23:11;14.40;;;6.13;;
78728;SDS011;68252;44.944;20.218;2024-01-06T01:25:37;12.77;;;6.13;;
78728;SDS011;68252;44.944;20.218;2024-01-06T01:28:03;10.73;;;5.55;;
78728;SDS011;68252;44.944;20.218;2024-01-06T01:30:29;13.75;;;6.03;;
78728;SDS011;68252;44.944;20.218;2024-01-06T01:32:57;11.32;;;6.07;;
78728;SDS011;68252;44.944;20.218;2024-01-06T01:35:23;14.95;;;6.07;;
78728;SDS011;68252;44.944;20.218;2024-01-06T01:37:49;14.95;;;5.75;;
78728;SDS011;68252;44.944;20.218;2024-01-06T01:40:15;14.50;;;5.80;;
78728;SDS011;68252;44.944;20.218;2024-01-06T01:42:44;11.82;;;5.25;;
78728;SDS011;68252;44.944;20.218;2024-01-06T01:45:10;12.50;;;5.18;;
78728;SDS011;68252;44.944;20.218;2024-01-06T01:47:36;16.10;;;5.68;;
78728;SDS011;68252;44.944;20.218;2024-01-06T01:50:04;13.73;;;5.82;;
78728;SDS011;68252;44.944;20.218;2024-01-06T01:52:30;12.50;;;5.72;;
78728;SDS011;68252;44.944;20.218;2024-01-06T01:54:57;9.93;;;5.20;;
78728;SDS011;68252;44.944;20.218;2024-01-06T01:57:24;12.52;;;5.90;;
78728;SDS011;68252;44.944;20.218;2024-01-06T01:59:52;12.15;;;5.10;;
78728;SDS011;68252;44.944;20.218;2024-01-06T02:02:19;8.63;;;4.53;;
78728;SDS011;68252;44.944;20.218;2024-01-06T02:04:46;10.88;;;5.50;;
78728;SDS011;68252;44.944;20.218;2024-01-06T02:07:13;11.90;;;4.78;;
78728;SDS011;68252;44.944;20.218;2024-01-06T02:09:39;10.82;;;4.63;;
78728;SDS011;68252;44.944;20.218;2024-01-06T02:12:05;12.63;;;4.50;;
78728;SDS011;68252;44.944;20.218;2024-01-06T02:14:31;9.48;;;4.65;;
78728;SDS011;68252;44.944;20.218;2024-01-06T02:16:57;12.27;;;4.85;;
78728;SDS011;68252;44.944;20.218;2024-01-06T02:19:24;14.10;;;4.00;;
78728;SDS011;68252;44.944;20.218;2024-01-06T02:21:53;9.95;;;4.07;;
78728;SDS011;68252;44.944;20.218;2024-01-06T02:24:19;11.05;;;4.00;;
78728;SDS011;68252;44.944;20.218;2024-01-06T02:26:45;11.93;;;5.25;;
78728;SDS011;68252;44.944;20.218;2024-01-06T02:29:12;7.88;;;3.80;;
78728;SDS011;68252;44.944;20.218;2024-01-06T02:31:38;8.30;;;4.00;;
78728;SDS011;68252;44.944;20.218;2024-01-06T02:34:04;10.10;;;3.95;;
78728;SDS011;68252;44.944;20.218;2024-01-06T02:36:30;14.35;;;5.22;;
78728;SDS011;68252;44.944;20.218;2024-01-06T02:38:56;8.25;;;3.72;;
78728;SDS011;68252;44.944;20.218;2024-01-06T02:41:22;9.52;;;4.68;;
78728;SDS011;68252;44.944;20.218;2024-01-06T02:43:48;14.02;;;5.07;;
78728;SDS011;68252;44.944;20.218;2024-01-06T02:46:14;8.85;;;3.55;;
78728;SDS011;68252;44.944;20.218;2024-01-06T02:48:40;6.78;;;3.67;;
78728;SDS011;68252;44.944;20.218;2024-01-06T02:51:06;8.88;;;3.63;;
78728;SDS011;68252;44.944;20.218;2024-01-06T02:53:32;6.80;;;3.40;;
78728;SDS011;68252;44.944;20.218;2024-01-06T02:55:58;9.07;;;4.45;;
78728;SDS011;68252;44.944;20.218;2024-01-06T02:58:24;9.50;;;4.18;;
78728;SDS011;68252;44.944;20.218;2024-01-06T03:00:50;14.68;;;3.88;;
78728;SDS011;68252;44.944;20.218;2024-01-06T03:03:16;6.65;;;3.42;;
78728;SDS011;68252;44.944;20.218;2024-01-06T03:05:43;8.02;;;4.30;;
78728;SDS011;68252;44.944;20.218;2024-01-06T03:08:11;10.65;;;3.40;;
78728;SDS011;68252;44.944;20.218;2024-01-06T03:10:37;9.88;;;4.30;;
78728;SDS011;68252;44.944;20.218;2024-01-06T03:13:03;8.50;;;3.58;;
78728;SDS011;68252;44.944;20.218;2024-01-06T03:15:29;5.07;;;2.63;;
78728;SDS011;68252;44.944;20.218;2024-01-06T03:17:55;7.13;;;3.63;;
78728;SDS011;68252;44.944;20.218;2024-01-06T03:20:21;7.95;;;3.22;;
78728;SDS011;68252;44.944;20.218;2024-01-06T03:22:47;7.00;;;3.80;;
78728;SDS011;68252;44.944;20.218;2024-01-06T03:25:14;12.57;;;3.58;;
78728;SDS011;68252;44.944;20.218;2024-01-06T03:27:40;6.95;;;2.78;;
78728;SDS011;68252;44.944;20.218;2024-01-06T03:30:06;6.72;;;3.50;;
78728;SDS011;68252;44.944;20.218;2024-01-06T03:32:33;6.15;;;3.50;;
78728;SDS011;68252;44.944;20.218;2024-01-06T03:34:59;6.60;;;3.40;;
78728;SDS011;68252;44.944;20.218;2024-01-06T03:37:25;9.88;;;3.70;;
78728;SDS011;68252;44.944;20.218;2024-01-06T03:39:51;7.82;;;3.35;;
78728;SDS011;68252;44.944;20.218;2024-01-06T03:42:17;7.03;;;2.78;;
78728;SDS011;68252;44.944;20.218;2024-01-06T03:44:43;8.77;;;3.20;;
78728;SDS011;68252;44.944;20.218;2024-01-06T03:47:10;7.90;;;2.70;;
78728;SDS011;68252;44.944;20.218;2024-01-06T03:49:36;7.38;;;4.00;;
78728;SDS011;68252;44.944;20.218;2024-01-06T03:52:02;11.00;;;3.83;;
78728;SDS011;68252;44.944;20.218;2024-01-06T03:54:28;12.13;;;4.20;;
78728;SDS011;68252;44.944;20.218;2024-01-06T03:56:57;6.95;;;2.83;;
78728;SDS011;68252;44.944;20.218;2024-01-06T03:59:23;8.07;;;2.90;;
78728;SDS011;68252;44.944;20.218;2024-01-06T04:01:49;6.28;;;3.15;;
78728;SDS011;68252;44.944;20.218;2024-01-06T04:04:15;5.07;;;2.65;;
78728;SDS011;68252;44.944;20.218;2024-01-06T04:06:47;6.55;;;3.47;;
78728;SDS011;68252;44.944;20.218;2024-01-06T04:09:13;5.25;;;2.58;;
78728;SDS011;68252;44.944;20.218;2024-01-06T04:11:42;9.85;;;3.30;;
78728;SDS011;68252;44.944;20.218;2024-01-06T04:14:08;8.82;;;3.45;;
78728;SDS011;68252;44.944;20.218;2024-01-06T04:16:37;7.13;;;3.38;;
78728;SDS011;68252;44.944;20.218;2024-01-06T04:19:06;7.68;;;4.22;;
78728;SDS011;68252;44.944;20.218;2024-01-06T04:21:32;6.00;;;3.20;;
78728;SDS011;68252;44.944;20.218;2024-01-06T04:23:58;9.77;;;3.50;;
78728;SDS011;68252;44.944;20.218;2024-01-06T04:26:27;8.90;;;3.17;;
78728;SDS011;68252;44.944;20.218;2024-01-06T04:28:53;9.73;;;3.70;;
78728;SDS011;68252;44.944;20.218;2024-01-06T04:31:19;8.68;;;3.78;;
78728;SDS011;68252;44.944;20.218;2024-01-06T04:33:45;8.60;;;3.72;;
78728;SDS011;68252;44.944;20.218;2024-01-06T04:36:11;5.78;;;3.50;;
78728;SDS011;68252;44.944;20.218;2024-01-06T04:38:37;8.43;;;2.97;;
78728;SDS011;68252;44.944;20.218;2024-01-06T04:41:06;9.77;;;3.88;;
78728;SDS011;68252;44.944;20.218;2024-01-06T04:43:32;6.90;;;3.22;;
78728;SDS011;68252;44.944;20.218;2024-01-06T04:45:58;7.35;;;3.33;;
78728;SDS011;68252;44.944;20.218;2024-01-06T04:48:24;8.45;;;3.78;;
78728;SDS011;68252;44.944;20.218;2024-01-06T04:50:50;7.80;;;3.15;;
78728;SDS011;68252;44.944;20.218;2024-01-06T04:53:17;6.20;;;3.15;;
78728;SDS011;68252;44.944;20.218;2024-01-06T04:55:43;6.85;;;3.30;;
78728;SDS011;68252;44.944;20.218;2024-01-06T04:58:09;5.95;;;3.08;;
78728;SDS011;68252;44.944;20.218;2024-01-06T05:00:35;7.90;;;3.60;;
78728;SDS011;68252;44.944;20.218;2024-01-06T05:03:01;11.15;;;4.30;;
78728;SDS011;68252;44.944;20.218;2024-01-06T05:05:27;13.88;;;4.28;;
78728;SDS011;68252;44.944;20.218;2024-01-06T05:07:53;13.77;;;3.70;;
78728;SDS011;68252;44.944;20.218;2024-01-06T05:10:19;7.57;;;3.35;;
78728;SDS011;68252;44.944;20.218;2024-01-06T05:12:45;9.15;;;3.65;;
78728;SDS011;68252;44.944;20.218;2024-01-06T05:15:11;11.65;;;4.55;;
78728;SDS011;68252;44.944;20.218;2024-01-06T05:17:37;15.77;;;6.70;;
78728;SDS011;68252;44.944;20.218;2024-01-06T05:20:03;13.20;;;5.78;;
78728;SDS011;68252;44.944;20.218;2024-01-06T05:22:30;7.93;;;4.10;;
78728;SDS011;68252;44.944;20.218;2024-01-06T05:24:56;9.93;;;3.60;;
78728;SDS011;68252;44.944;20.218;2024-01-06T05:27:22;11.05;;;4.20;;
78728;SDS011;68252;44.944;20.218;2024-01-06T05:29:48;10.45;;;4.20;;
78728;SDS011;68252;44.944;20.218;2024-01-06T05:32:15;9.93;;;4.05;;
78728;SDS011;68252;44.944;20.218;2024-01-06T05:34:42;7.75;;;3.75;;
78728;SDS011;68252;44.944;20.218;2024-01-06T05:37:09;10.82;;;4.20;;
78728;SDS011;68252;44.944;20.218;2024-01-06T05:39:37;12.50;;;4.47;;
78728;SDS011;68252;44.944;20.218;2024-01-06T05:42:04;12.77;;;4.82;;
78728;SDS011;68252;44.944;20.218;2024-01-06T05:44:30;10.77;;;3.70;;
78728;SDS011;68252;44.944;20.218;2024-01-06T05:46:56;11.95;;;4.03;;
78728;SDS011;68252;44.944;20.218;2024-01-06T05:49:22;12.20;;;3.58;;
78728;SDS011;68252;44.944;20.218;2024-01-06T05:51:49;8.90;;;4.32;;
78728;SDS011;68252;44.944;20.218;2024-01-06T05:54:15;11.50;;;4.13;;
78728;SDS011;68252;44.944;20.218;2024-01-06T05:56:41;11.80;;;4.47;;
78728;SDS011;68252;44.944;20.218;2024-01-06T05:59:07;14.02;;;4.50;;
78728;SDS011;68252;44.944;20.218;2024-01-06T06:01:33;10.40;;;4.55;;
78728;SDS011;68252;44.944;20.218;2024-01-06T06:03:59;10.90;;;5.10;;
78728;SDS011;68252;44.944;20.218;2024-01-06T06:06:26;12.07;;;4.55;;
78728;SDS011;68252;44.944;20.218;2024-01-06T06:08:52;9.90;;;4.18;;
78728;SDS011;68252;44.944;20.218;2024-01-06T06:11:18;10.95;;;4.57;;
78728;SDS011;68252;44.944;20.218;2024-01-06T06:13:44;9.38;;;4.20;;
78728;SDS011;68252;44.944;20.218;2024-01-06T06:16:10;7.57;;;3.65;;
78728;SDS011;68252;44.944;20.218;2024-01-06T06:18:39;12.50;;;3.65;;
78728;SDS011;68252;44.944;20.218;2024-01-06T06:21:06;6.70;;;3.20;;
78728;SDS011;68252;44.944;20.218;2024-01-06T06:23:33;8.20;;;3.78;;
78728;SDS011;68252;44.944;20.218;2024-01-06T06:25:59;10.45;;;3.67;;
78728;SDS011;68252;44.944;20.218;2024-01-06T06:28:25;8.80;;;3.60;;
78728;SDS011;68252;44.944;20.218;2024-01-06T06:30:51;9.95;;;3.70;;
78728;SDS011;68252;44.944;20.218;2024-01-06T06:33:18;13.40;;;4.15;;
78728;SDS011;68252;44.944;20.218;2024-01-06T06:35:44;12.80;;;4.35;;
78728;SDS011;68252;44.944;20.218;2024-01-06T06:38:10;8.73;;;3.15;;
78728;SDS011;68252;44.944;20.218;2024-01-06T06:40:36;9.75;;;4.05;;
78728;SDS011;68252;44.944;20.218;2024-01-06T06:43:02;14.07;;;4.13;;
78728;SDS011;68252;44.944;20.218;2024-01-06T06:45:28;14.73;;;4.65;;
78728;SDS011;68252;44.944;20.218;2024-01-06T06:47:54;12.55;;;5.85;;
78728;SDS011;68252;44.944;20.218;2024-01-06T06:50:20;21.48;;;7.22;;
78728;SDS011;68252;44.944;20.218;2024-01-06T06:52:46;10.70;;;5.68;;
78728;SDS011;68252;44.944;20.218;2024-01-06T06:55:13;25.23;;;5.40;;
78728;SDS011;68252;44.944;20.218;2024-01-06T06:57:39;10.20;;;4.93;;
78728;SDS011;68252;44.944;20.218;2024-01-06T07:00:05;9.45;;;4.45;;
78728;SDS011;68252;44.944;20.218;2024-01-06T07:02:32;20.40;;;6.13;;
78728;SDS011;68252;44.944;20.218;2024-01-06T07:04:59;31.73;;;5.32;;
78728;SDS011;68252;44.944;20.218;2024-01-06T07:07:25;13.70;;;4.70;;
78728;SDS011;68252;44.944;20.218;2024-01-06T07:09:51;10.00;;;4.72;;
78728;SDS011;68252;44.944;20.218;2024-01-06T07:12:17;13.30;;;4.65;;
78728;SDS011;68252;44.944;20.218;2024-01-06T07:14:43;12.90;;;5.80;;
78728;SDS011;68252;44.944;20.218;2024-01-06T07:17:09;15.00;;;5.10;;
78728;SDS011;68252;44.944;20.218;2024-01-06T07:19:35;9.05;;;4.72;;
78728;SDS011;68252;44.944;20.218;2024-01-06T07:22:01;16.13;;;6.68;;
78728;SDS011;68252;44.944;20.218;2024-01-06T07:24:28;18.27;;;5.57;;
78728;SDS011;68252;44.944;20.218;2024-01-06T07:26:54;16.63;;;5.55;;
78728;SDS011;68252;44.944;20.218;2024-01-06T07:29:20;19.05;;;4.65;;
78728;SDS011;68252;44.944;20.218;2024-01-06T07:31:46;17.25;;;4.68;;
78728;SDS011;68252;44.944;20.218;2024-01-06T07:34:12;15.20;;;4.88;;
78728;SDS011;68252;44.944;20.218;2024-01-06T07:36:38;13.57;;;5.93;;
78728;SDS011;68252;44.944;20.218;2024-01-06T07:39:04;21.45;;;5.63;;
78728;SDS011;68252;44.944;20.218;2024-01-06T07:41:31;14.85;;;5.47;;
78728;SDS011;68252;44.944;20.218;2024-01-06T07:43:57;19.55;;;5.20;;
78728;SDS011;68252;44.944;20.218;2024-01-06T07:46:24;12.55;;;5.60;;
78728;SDS011;68252;44.944;20.218;2024-01-06T07:48:50;20.77;;;5.45;;
78728;SDS011;68252;44.944;20.218;2024-01-06T07:51:16;13.80;;;5.43;;
78728;SDS011;68252;44.944;20.218;2024-01-06T07:53:42;22.58;;;6.00;;
78728;SDS011;68252;44.944;20.218;2024-01-06T07:56:08;15.57;;;7.00;;
78728;SDS011;68252;44.944;20.218;2024-01-06T07:58:34;18.67;;;7.10;;
78728;SDS011;68252;44.944;20.218;2024-01-06T08:01:00;42.03;;;7.30;;
78728;SDS011;68252;44.944;20.218;2024-01-06T08:03:26;27.52;;;6.00;;
78728;SDS011;68252;44.944;20.218;2024-01-06T08:05:52;22.58;;;5.82;;
78728;SDS011;68252;44.944;20.218;2024-01-06T08:08:19;29.30;;;6.03;;
78728;SDS011;68252;44.944;20.218;2024-01-06T08:10:45;39.85;;;7.68;;
78728;SDS011;68252;44.944;20.218;2024-01-06T08:13:12;19.33;;;6.57;;
78728;SDS011;68252;44.944;20.218;2024-01-06T08:15:38;25.50;;;7.22;;
78728;SDS011;68252;44.944;20.218;2024-01-06T08:18:04;25.98;;;6.68;;
78728;SDS011;68252;44.944;20.218;2024-01-06T08:20:30;19.50;;;5.55;;
78728;SDS011;68252;44.944;20.218;2024-01-06T08:22:56;35.20;;;5.78;;
78728;SDS011;68252;44.944;20.218;2024-01-06T08:25:22;16.45;;;5.07;;
78728;SDS011;68252;44.944;20.218;2024-01-06T08:27:48;21.70;;;4.78;;
78728;SDS011;68252;44.944;20.218;2024-01-06T08:30:14;18.27;;;4.72;;
78728;SDS011;68252;44.944;20.218;2024-01-06T08:32:40;32.88;;;5.55;;
78728;SDS011;68252;44.944;20.218;2024-01-06T08:35:07;18.77;;;5.45;;
78728;SDS011;68252;44.944;20.218;2024-01-06T08:37:33;77.05;;;7.55;;
78728;SDS011;68252;44.944;20.218;2024-01-06T08:39:59;19.90;;;5.47;;
78728;SDS011;68252;44.944;20.218;2024-01-06T08:42:25;19.52;;;5.72;;
78728;SDS011;68252;44.944;20.218;2024-01-06T08:44:51;32.85;;;7.38;;
78728;SDS011;68252;44.944;20.218;2024-01-06T08:47:17;14.98;;;6.32;;
78728;SDS011;68252;44.944;20.218;2024-01-06T08:49:43;30.02;;;8.50;;
78728;SDS011;68252;44.944;20.218;2024-01-06T08:52:09;28.73;;;7.22;;
78728;SDS011;68252;44.944;20.218;2024-01-06T08:54:35;24.48;;;7.00;;
78728;SDS011;68252;44.944;20.218;2024-01-06T08:57:02;49.35;;;8.05;;
78728;SDS011;68252;44.944;20.218;2024-01-06T08:59:28;25.38;;;8.15;;
78728;SDS011;68252;44.944;20.218;2024-01-06T09:01:54;29.42;;;6.47;;
78728;SDS011;68252;44.944;20.218;2024-01-06T09:04:21;31.42;;;6.53;;
78728;SDS011;68252;44.944;20.218;2024-01-06T09:06:47;15.88;;;7.32;;
78728;SDS011;68252;44.944;20.218;2024-01-06T09:09:15;25.02;;;5.97;;
78728;SDS011;68252;44.944;20.218;2024-01-06T09:11:42;40.45;;;6.40;;
78728;SDS011;68252;44.944;20.218;2024-01-06T09:14:09;28.65;;;5.47;;
78728;SDS011;68252;44.944;20.218;2024-01-06T09:19:04;19.77;;;6.55;;
78728;SDS011;68252;44.944;20.218;2024-01-06T09:21:30;61.70;;;8.73;;
78728;SDS011;68252;44.944;20.218;2024-01-06T09:23:56;35.97;;;7.28;;
78728;SDS011;68252;44.944;20.218;2024-01-06T09:26:22;32.85;;;8.52;;
78728;SDS011;68252;44.944;20.218;2024-01-06T09:28:48;32.47;;;7.40;;
78728;SDS011;68252;44.944;20.218;2024-01-06T09:31:15;26.98;;;7.45;;
78728;SDS011;68252;44.944;20.218;2024-01-06T09:33:41;35.47;;;7.22;;
78728;SDS011;68252;44.944;20.218;2024-01-06T09:36:08;18.58;;;5.80;;
78728;SDS011;68252;44.944;20.218;2024-01-06T09:38:36;48.20;;;7.90;;
78728;SDS011;68252;44.944;20.218;2024-01-06T09:41:02;34.60;;;6.45;;
78728;SDS011;68252;44.944;20.218;2024-01-06T09:43:29;22.80;;;6.88;;
78728;SDS011;68252;44.944;20.218;2024-01-06T09:46:01;39.97;;;8.05;;
78728;SDS011;68252;44.944;20.218;2024-01-06T09:48:28;19.70;;;6.47;;
78728;SDS011;68252;44.944;20.218;2024-01-06T09:50:59;22.13;;;5.63;;
78728;SDS011;68252;44.944;20.218;2024-01-06T09:55:54;52.38;;;8.20;;
78728;SDS011;68252;44.944;20.218;2024-01-06T09:58:20;48.85;;;8.48;;
78728;SDS011;68252;44.944;20.218;2024-01-06T10:00:48;36.33;;;7.03;;
78728;SDS011;68252;44.944;20.218;2024-01-06T10:03:14;37.92;;;7.60;;
78728;SDS011;68252;44.944;20.218;2024-01-06T10:05:41;41.45;;;6.97;;
78728;SDS011;68252;44.944;20.218;2024-01-06T10:08:07;56.70;;;8.13;;
78728;SDS011;68252;44.944;20.218;2024-01-06T10:10:33;93.40;;;9.35;;
78728;SDS011;68252;44.944;20.218;2024-01-06T10:12:59;59.10;;;9.50;;
78728;SDS011;68252;44.944;20.218;2024-01-06T10:15:25;23.52;;;8.35;;
78728;SDS011;68252;44.944;20.218;2024-01-06T10:17:53;41.90;;;7.43;;
78728;SDS011;68252;44.944;20.218;2024-01-06T10:20:19;30.05;;;7.03;;
78728;SDS011;68252;44.944;20.218;2024-01-06T10:22:46;48.40;;;6.70;;
78728;SDS011;68252;44.944;20.218;2024-01-06T10:25:13;39.50;;;7.70;;
78728;SDS011;68252;44.944;20.218;2024-01-06T10:27:40;34.13;;;7.97;;
78728;SDS011;68252;44.944;20.218;2024-01-06T10:30:07;31.70;;;8.07;;
78728;SDS011;68252;44.944;20.218;2024-01-06T10:32:33;45.58;;;8.95;;
78728;SDS011;68252;44.944;20.218;2024-01-06T10:35:01;70.57;;;9.73;;
78728;SDS011;68252;44.944;20.218;2024-01-06T10:37:28;37.38;;;8.23;;
78728;SDS011;68252;44.944;20.218;2024-01-06T10:40:07;48.08;;;8.75;;
78728;SDS011;68252;44.944;20.218;2024-01-06T10:45:00;87.25;;;12.35;;
78728;SDS011;68252;44.944;20.218;2024-01-06T10:47:29;58.30;;;9.63;;
78728;SDS011;68252;44.944;20.218;2024-01-06T10:49:58;24.63;;;8.07;;
78728;SDS011;68252;44.944;20.218;2024-01-06T10:52:24;33.45;;;7.72;;
78728;SDS011;68252;44.944;20.218;2024-01-06T10:54:52;46.92;;;8.43;;
78728;SDS011;68252;44.944;20.218;2024-01-06T10:57:19;29.98;;;7.40;;
78728;SDS011;68252;44.944;20.218;2024-01-06T10:59:46;34.47;;;8.63;;
78728;SDS011;68252;44.944;20.218;2024-01-06T11:02:14;28.08;;;8.15;;
78728;SDS011;68252;44.944;20.218;2024-01-06T11:07:10;39.75;;;9.98;;
78728;SDS011;68252;44.944;20.218;2024-01-06T11:09:37;65.07;;;12.25;;
78728;SDS011;68252;44.944;20.218;2024-01-06T11:12:05;66.17;;;11.47;;
78728;SDS011;68252;44.944;20.218;2024-01-06T11:14:36;54.47;;;11.45;;
78728;SDS011;68252;44.944;20.218;2024-01-06T11:17:02;93.43;;;13.25;;
78728;SDS011;68252;44.944;20.218;2024-01-06T11:24:49;51.60;;;9.57;;
78728;SDS011;68252;44.944;20.218;2024-01-06T11:27:19;35.50;;;9.98;;
78728;SDS011;68252;44.944;20.218;2024-01-06T11:29:45;45.08;;;11.27;;
78728;SDS011;68252;44.944;20.218;2024-01-06T11:34:53;44.70;;;11.45;;
78728;SDS011;68252;44.944;20.218;2024-01-06T11:37:37;30.73;;;9.55;;
78728;SDS011;68252;44.944;20.218;2024-01-06T11:42:57;40.28;;;11.95;;
78728;SDS011;68252;44.944;20.218;2024-01-06T11:45:24;76.45;;;12.98;;
78728;SDS011;68252;44.944;20.218;2024-01-06T11:47:51;33.25;;;9.45;;
78728;SDS011;68252;44.944;20.218;2024-01-06T11:50:20;54.45;;;10.82;;
78728;SDS011;68252;44.944;20.218;2024-01-06T11:52:46;27.42;;;9.15;;
78728;SDS011;68252;44.944;20.218;2024-01-06T11:55:13;33.63;;;10.23;;
78728;SDS011;68252;44.944;20.218;2024-01-06T11:57:39;48.53;;;11.30;;
78728;SDS011;68252;44.944;20.218;2024-01-06T12:00:05;49.33;;;11.43;;
78728;SDS011;68252;44.944;20.218;2024-01-06T12:02:32;79.03;;;10.38;;
78728;SDS011;68252;44.944;20.218;2024-01-06T12:04:58;37.88;;;9.02;;
78728;SDS011;68252;44.944;20.218;2024-01-06T12:07:24;25.80;;;7.55;;
78728;SDS011;68252;44.944;20.218;2024-01-06T12:09:51;40.97;;;8.75;;
78728;SDS011;68252;44.944;20.218;2024-01-06T12:12:18;46.85;;;9.55;;
78728;SDS011;68252;44.944;20.218;2024-01-06T12:14:44;29.92;;;9.40;;
78728;SDS011;68252;44.944;20.218;2024-01-06T12:17:12;34.25;;;7.97;;
78728;SDS011;68252;44.944;20.218;2024-01-06T12:19:39;69.05;;;10.32;;
78728;SDS011;68252;44.944;20.218;2024-01-06T12:22:07;36.27;;;8.00;;
78728;SDS011;68252;44.944;20.218;2024-01-06T12:24:36;27.95;;;8.23;;
78728;SDS011;68252;44.944;20.218;2024-01-06T12:27:02;36.30;;;7.72;;
78728;SDS011;68252;44.944;20.218;2024-01-06T12:29:28;43.58;;;10.05;;
78728;SDS011;68252;44.944;20.218;2024-01-06T12:31:56;33.28;;;9.55;;
78728;SDS011;68252;44.944;20.218;2024-01-06T12:34:24;39.13;;;8.25;;
78728;SDS011;68252;44.944;20.218;2024-01-06T12:36:54;23.45;;;8.30;;
78728;SDS011;68252;44.944;20.218;2024-01-06T12:39:20;15.75;;;7.13;;
78728;SDS011;68252;44.944;20.218;2024-01-06T12:41:48;33.90;;;8.10;;
78728;SDS011;68252;44.944;20.218;2024-01-06T12:44:15;48.05;;;8.02;;
78728;SDS011;68252;44.944;20.218;2024-01-06T12:46:41;39.28;;;9.10;;
78728;SDS011;68252;44.944;20.218;2024-01-06T12:49:07;38.65;;;8.80;;
78728;SDS011;68252;44.944;20.218;2024-01-06T12:51:33;24.60;;;7.97;;
78728;SDS011;68252;44.944;20.218;2024-01-06T12:54:00;40.47;;;8.23;;
78728;SDS011;68252;44.944;20.218;2024-01-06T12:56:26;32.67;;;8.73;;
78728;SDS011;68252;44.944;20.218;2024-01-06T12:58:52;44.53;;;9.98;;
78728;SDS011;68252;44.944;20.218;2024-01-06T13:01:18;27.42;;;10.32;;
78728;SDS011;68252;44.944;20.218;2024-01-06T13:03:44;44.55;;;8.70;;
78728;SDS011;68252;44.944;20.218;2024-01-06T13:06:11;39.03;;;7.90;;
78728;SDS011;68252;44.944;20.218;2024-01-06T13:08:38;56.83;;;9.52;;
78728;SDS011;68252;44.944;20.218;2024-01-06T13:11:04;32.55;;;10.50;;
78728;SDS011;68252;44.944;20.218;2024-01-06T13:13:30;51.30;;;14.65;;
78728;SDS011;68252;44.944;20.218;2024-01-06T13:15:59;25.17;;;12.32;;
78728;SDS011;68252;44.944;20.218;2024-01-06T13:18:28;36.08;;;13.15;;
78728;SDS011;68252;44.944;20.218;2024-01-06T13:20:54;36.08;;;12.15;;
78728;SDS011;68252;44.944;20.218;2024-01-06T13:23:21;25.38;;;9.52;;
78728;SDS011;68252;44.944;20.218;2024-01-06T13:25:47;28.23;;;8.80;;
78728;SDS011;68252;44.944;20.218;2024-01-06T13:28:13;34.17;;;8.30;;
78728;SDS011;68252;44.944;20.218;2024-01-06T13:30:39;20.50;;;7.80;;
78728;SDS011;68252;44.944;20.218;2024-01-06T13:33:06;33.17;;;14.45;;
78728;SDS011;68252;44.944;20.218;2024-01-06T13:35:34;36.13;;;7.32;;
78728;SDS011;68252;44.944;20.218;2024-01-06T13:38:01;25.88;;;7.50;;
78728;SDS011;68252;44.944;20.218;2024-01-06T13:40:29;19.63;;;6.80;;
78728;SDS011;68252;44.944;20.218;2024-01-06T13:42:55;47.38;;;7.78;;
78728;SDS011;68252;44.944;20.218;2024-01-06T13:45:21;36.05;;;6.55;;
78728;SDS011;68252;44.944;20.218;2024-01-06T13:47:48;24.95;;;6.10;;
78728;SDS011;68252;44.944;20.218;2024-01-06T13:50:15;13.70;;;5.30;;
78728;SDS011;68252;44.944;20.218;2024-01-06T13:52:42;47.72;;;6.13;;
78728;SDS011;68252;44.944;20.218;2024-01-06T13:55:08;25.63;;;6.63;;
78728;SDS011;68252;44.944;20.218;2024-01-06T13:57:35;25.50;;;10.10;;
78728;SDS011;68252;44.944;20.218;2024-01-06T14:00:06;16.80;;;5.85;;
78728;SDS011;68252;44.944;20.218;2024-01-06T14:02:32;29.83;;;6.80;;
78728;SDS011;68252;44.944;20.218;2024-01-06T14:04:58;17.63;;;6.00;;
78728;SDS011;68252;44.944;20.218;2024-01-06T14:07:24;18.67;;;7.18;;
78728;SDS011;68252;44.944;20.218;2024-01-06T14:09:51;24.38;;;7.32;;
78728;SDS011;68252;44.944;20.218;2024-01-06T14:12:17;21.83;;;7.43;;
78728;SDS011;68252;44.944;20.218;2024-01-06T14:14:44;20.35;;;6.88;;
78728;SDS011;68252;44.944;20.218;2024-01-06T14:17:11;18.40;;;7.10;;
78728;SDS011;68252;44.944;20.218;2024-01-06T14:19:37;17.75;;;6.85;;
78728;SDS011;68252;44.944;20.218;2024-01-06T14:22:03;23.58;;;8.20;;
78728;SDS011;68252;44.944;20.218;2024-01-06T14:24:32;23.40;;;8.05;;
78728;SDS011;68252;44.944;20.218;2024-01-06T14:26:58;26.52;;;7.65;;
78728;SDS011;68252;44.944;20.218;2024-01-06T14:29:24;13.88;;;7.35;;
78728;SDS011;68252;44.944;20.218;2024-01-06T14:31:50;26.17;;;9.07;;
78728;SDS011;68252;44.944;20.218;2024-01-06T14:34:17;28.23;;;9.82;;
78728;SDS011;68252;44.944;20.218;2024-01-06T14:36:43;25.38;;;8.68;;
78728;SDS011;68252;44.944;20.218;2024-01-06T14:39:15;23.98;;;9.07;;